createdAt,value
2023-10-23T00:01:42.518Z,66.90
2023-10-23T00:04:10.774Z,66.80
2023-10-23T00:06:38.232Z,66.90
2023-10-23T00:09:05.399Z,66.90
2023-10-23T00:11:32.797Z,66.80
2023-10-23T00:14:01.233Z,66.90
2023-10-23T00:16:28.362Z,66.90
2023-10-23T00:18:55.791Z,66.90
2023-10-23T00:21:22.930Z,66.90
2023-10-23T00:23:51.027Z,66.90
2023-10-23T00:26:18.671Z,66.90
2023-10-23T00:28:45.817Z,66.90
2023-10-23T00:31:14.349Z,66.90
2023-10-23T00:33:41.704Z,66.90
2023-10-23T00:36:08.912Z,66.90
2023-10-23T00:38:36.050Z,66.90
2023-10-23T00:41:03.198Z,66.90
2023-10-23T00:43:30.254Z,66.90
2023-10-23T00:45:59.113Z,66.90
2023-10-23T00:48:28.663Z,66.90
2023-10-23T00:51:00.923Z,66.80
2023-10-23T00:53:32.466Z,66.90
2023-10-23T00:56:00.591Z,66.90
2023-10-23T00:58:28.262Z,66.90
2023-10-23T01:00:57.012Z,66.90
2023-10-23T01:03:24.639Z,67.00
2023-10-23T01:05:53.316Z,66.90
2023-10-23T01:08:20.498Z,67.00
2023-10-23T01:10:47.922Z,67.00
2023-10-23T01:13:15.959Z,67.00
2023-10-23T01:15:43.088Z,67.00
2023-10-23T01:18:10.155Z,67.10
2023-10-23T01:20:37.276Z,67.10
2023-10-23T01:23:05.935Z,67.10
2023-10-23T01:25:34.890Z,67.00
2023-10-23T01:28:02.158Z,67.00
2023-10-23T01:30:29.815Z,67.10
2023-10-23T01:32:57.174Z,67.00
2023-10-23T01:35:24.363Z,67.10
2023-10-23T01:37:52.590Z,67.00
2023-10-23T01:40:19.857Z,67.00
2023-10-23T01:42:48.419Z,67.00
2023-10-23T01:45:15.985Z,67.00
2023-10-23T01:47:43.273Z,67.00
2023-10-23T01:50:10.826Z,67.00
2023-10-23T01:52:38.542Z,67.00
2023-10-23T01:55:06.589Z,67.10
2023-10-23T01:57:33.841Z,67.10
2023-10-23T02:00:06.047Z,67.10
2023-10-23T02:02:33.462Z,67.10
2023-10-23T02:05:00.886Z,67.10
2023-10-23T02:07:28.934Z,67.00
2023-10-23T02:09:58.120Z,67.00
2023-10-23T02:12:27.063Z,67.00
2023-10-23T02:14:54.277Z,67.00
2023-10-23T02:17:22.915Z,67.10
2023-10-23T02:19:49.998Z,67.00
2023-10-23T02:22:18.041Z,67.00
2023-10-23T02:24:45.186Z,67.00
2023-10-23T02:27:12.364Z,67.00
2023-10-23T02:29:41.636Z,67.60
2023-10-23T02:32:09.140Z,67.00
2023-10-23T02:34:38.413Z,66.90
2023-10-23T02:37:05.921Z,67.00
2023-10-23T02:39:33.176Z,67.00
2023-10-23T02:42:00.832Z,67.00
2023-10-23T02:44:28.134Z,66.90
2023-10-23T02:46:55.481Z,66.90
2023-10-23T02:49:23.144Z,67.00
2023-10-23T02:54:23.865Z,67.00
2023-10-23T02:56:51.137Z,67.00
2023-10-23T02:59:18.190Z,67.00
2023-10-23T03:01:45.706Z,67.10
2023-10-23T03:06:44.872Z,67.10
2023-10-23T03:09:13.756Z,67.10
2023-10-23T03:11:40.976Z,67.00
2023-10-23T03:14:09.845Z,67.00
2023-10-23T03:16:37.105Z,67.00
2023-10-23T03:19:04.333Z,67.00
2023-10-23T03:21:31.404Z,67.00
2023-10-23T03:23:58.528Z,66.90
2023-10-23T03:26:26.912Z,66.90
2023-10-23T03:28:53.961Z,67.10
2023-10-23T03:31:21.076Z,67.10
2023-10-23T03:33:48.186Z,66.70
2023-10-23T03:36:15.336Z,67.20
2023-10-23T03:38:42.409Z,67.30
2023-10-23T03:41:09.362Z,67.20
2023-10-23T03:43:37.753Z,67.20
2023-10-23T03:46:05.101Z,67.20
2023-10-23T03:48:36.005Z,67.10
2023-10-23T03:51:04.002Z,67.20
2023-10-23T03:53:31.291Z,67.80
2023-10-23T03:55:58.438Z,67.30
2023-10-23T03:58:25.680Z,67.10
2023-10-23T04:00:54.601Z,67.20
2023-10-23T04:03:22.389Z,67.00
2023-10-23T04:05:49.537Z,67.80
2023-10-23T04:08:16.711Z,67.20
2023-10-23T04:10:47.896Z,67.20
2023-10-23T04:13:15.372Z,67.30
2023-10-23T04:15:52.869Z,67.30
2023-10-23T04:18:20.261Z,67.20
2023-10-23T04:20:47.424Z,66.90
2023-10-23T04:23:14.540Z,67.10
2023-10-23T04:25:41.739Z,67.30
2023-10-23T04:28:08.813Z,67.30
2023-10-23T04:30:35.864Z,67.40
2023-10-23T04:33:04.618Z,67.30
2023-10-23T04:35:33.378Z,67.30
2023-10-23T04:38:00.472Z,67.30
2023-10-23T04:40:27.784Z,67.20
2023-10-23T04:42:54.835Z,67.20
2023-10-23T04:45:21.927Z,67.10
2023-10-23T04:47:49.053Z,67.20
2023-10-23T04:50:17.649Z,67.10
2023-10-23T04:52:45.090Z,67.10
2023-10-23T04:55:12.171Z,67.10
2023-10-23T04:57:39.263Z,67.70
2023-10-23T05:00:07.693Z,67.10
2023-10-23T05:02:34.698Z,67.10
2023-10-23T05:05:01.816Z,67.00
2023-10-23T05:07:30.224Z,66.90
2023-10-23T05:09:57.276Z,66.90
2023-10-23T05:12:24.434Z,66.90
2023-10-23T05:14:52.532Z,66.90
2023-10-23T05:17:19.574Z,66.80
2023-10-23T05:19:47.888Z,66.80
2023-10-23T05:22:14.970Z,66.80
2023-10-23T05:24:47.226Z,66.80
2023-10-23T05:27:14.395Z,66.80
2023-10-23T05:29:41.721Z,66.70
2023-10-23T05:32:08.706Z,66.70
2023-10-23T05:34:35.878Z,66.60
2023-10-23T05:37:03.275Z,66.60
2023-10-23T05:39:30.700Z,66.60
2023-10-23T05:41:59.075Z,66.60
2023-10-23T05:44:28.281Z,66.60
2023-10-23T05:46:56.647Z,66.60
2023-10-23T05:49:23.672Z,66.60
2023-10-23T05:51:50.684Z,66.60
2023-10-23T05:54:18.117Z,66.50
2023-10-23T05:56:45.357Z,66.60
2023-10-23T05:59:13.897Z,66.50
2023-10-23T06:01:40.936Z,66.50
2023-10-23T06:04:08.316Z,66.50
2023-10-23T06:06:36.703Z,66.40
2023-10-23T06:09:05.446Z,66.50
2023-10-23T06:11:32.820Z,66.50
2023-10-23T06:13:59.895Z,66.50
2023-10-23T06:16:28.412Z,66.50
2023-10-23T06:18:55.526Z,66.60
2023-10-23T06:21:22.636Z,66.60
2023-10-23T06:23:49.730Z,66.60
2023-10-23T06:26:16.711Z,66.60
2023-10-23T06:28:43.958Z,66.60
2023-10-23T06:31:12.153Z,66.60
2023-10-23T06:33:43.717Z,66.60
2023-10-23T06:36:11.127Z,66.60
2023-10-23T06:38:38.639Z,67.00
2023-10-23T06:41:07.175Z,66.50
2023-10-23T06:43:35.089Z,66.30
2023-10-23T06:46:03.398Z,66.30
2023-10-23T06:48:30.828Z,66.50
2023-10-23T06:51:00.012Z,66.00
2023-10-23T06:53:27.167Z,66.20
2023-10-23T06:55:56.324Z,66.50
2023-10-23T06:58:23.707Z,66.40
2023-10-23T07:00:50.793Z,65.70
2023-10-23T07:03:18.060Z,66.30
2023-10-23T07:05:45.424Z,66.60
2023-10-23T07:08:14.405Z,66.70
2023-10-23T07:10:41.539Z,66.00
2023-10-23T07:13:19.590Z,66.60
2023-10-23T07:15:50.338Z,66.70
2023-10-23T07:18:18.712Z,66.60
2023-10-23T07:20:54.869Z,66.50
2023-10-23T07:23:23.500Z,66.20
2023-10-23T07:26:03.706Z,66.00
2023-10-23T07:28:30.945Z,66.30
2023-10-23T07:30:58.162Z,66.40
2023-10-23T07:33:25.476Z,66.20
2023-10-23T07:36:03.971Z,65.60
2023-10-23T07:38:33.157Z,66.00
2023-10-23T07:41:00.581Z,65.70
2023-10-23T07:43:28.706Z,66.30
2023-10-23T07:46:04.127Z,66.90
2023-10-23T07:48:35.548Z,65.90
2023-10-23T07:51:04.905Z,66.10
2023-10-23T07:53:39.290Z,66.10
2023-10-23T07:56:06.769Z,66.00
2023-10-23T07:58:34.634Z,66.10
2023-10-23T08:01:06.448Z,66.00
2023-10-23T08:03:35.209Z,65.90
2023-10-23T08:06:04.487Z,65.90
2023-10-23T08:08:35.357Z,65.70
2023-10-23T08:11:04.977Z,65.80
2023-10-23T08:13:33.242Z,65.60
2023-10-23T08:16:01.335Z,65.30
2023-10-23T08:18:38.275Z,65.50
2023-10-23T08:21:11.754Z,65.60
2023-10-23T08:23:40.767Z,65.30
2023-10-23T08:26:07.920Z,65.60
2023-10-23T08:28:42.679Z,65.20
2023-10-23T08:31:37.053Z,65.30
2023-10-23T08:34:06.964Z,65.70
2023-10-23T08:36:34.693Z,65.30
2023-10-23T08:39:04.465Z,65.00
2023-10-23T08:41:32.582Z,65.00
2023-10-23T08:44:00.398Z,65.90
2023-10-23T08:46:33.294Z,65.80
2023-10-23T08:49:01.722Z,65.40
2023-10-23T08:51:29.343Z,64.90
2023-10-23T08:54:11.074Z,66.20
2023-10-23T08:56:43.280Z,65.50
2023-10-23T08:59:12.198Z,65.30
2023-10-23T09:01:39.724Z,65.40
2023-10-23T09:04:08.511Z,65.30
2023-10-23T09:06:38.873Z,65.30
2023-10-23T09:09:06.674Z,65.20
2023-10-23T09:11:45.975Z,65.10
2023-10-23T09:14:26.051Z,64.80
2023-10-23T09:16:54.797Z,65.00
2023-10-23T09:19:26.823Z,65.10
2023-10-23T09:21:57.832Z,64.90
2023-10-23T09:24:25.359Z,65.10
2023-10-23T09:26:54.125Z,65.20
2023-10-23T09:29:24.557Z,65.10
2023-10-23T09:31:52.141Z,65.00
2023-10-23T09:34:19.525Z,65.10
2023-10-23T09:36:48.034Z,65.00
2023-10-23T09:39:15.148Z,65.00
2023-10-23T09:41:42.977Z,65.00
2023-10-23T09:44:13.400Z,65.00
2023-10-23T09:46:40.752Z,65.00
2023-10-23T09:49:07.966Z,64.90
2023-10-23T09:51:42.008Z,64.80
2023-10-23T09:54:15.515Z,65.00
2023-10-23T09:56:49.443Z,65.00
2023-10-23T09:59:19.611Z,64.80
2023-10-23T10:01:49.184Z,64.90
2023-10-23T10:04:26.462Z,64.80
2023-10-23T10:06:56.894Z,64.70
2023-10-23T10:09:26.506Z,64.90
2023-10-23T10:11:56.248Z,64.70
2023-10-23T10:14:25.722Z,64.70
2023-10-23T10:16:56.499Z,64.60
2023-10-23T10:19:24.513Z,64.80
2023-10-23T10:22:07.868Z,64.80
2023-10-23T10:24:36.874Z,64.20
2023-10-23T10:27:06.072Z,64.60
2023-10-23T10:29:34.618Z,64.30
2023-10-23T10:32:13.308Z,64.40
2023-10-23T10:34:55.966Z,64.60
2023-10-23T10:37:26.624Z,64.50
2023-10-23T10:40:07.274Z,64.60
2023-10-23T10:42:38.204Z,64.70
2023-10-23T10:45:17.963Z,64.40
2023-10-23T10:47:48.014Z,64.50
2023-10-23T10:50:32.236Z,64.40
2023-10-23T10:53:03.390Z,64.20
2023-10-23T10:58:04.159Z,64.40
2023-10-23T11:00:34.216Z,64.50
2023-10-23T11:03:01.363Z,64.50
2023-10-23T11:05:28.656Z,64.50
2023-10-23T11:07:56.058Z,64.50
2023-10-23T11:10:23.349Z,64.50
2023-10-23T11:12:53.226Z,64.60
2023-10-23T11:15:20.904Z,64.50
2023-10-23T11:17:49.511Z,64.50
2023-10-23T11:20:16.960Z,64.60
2023-10-23T11:22:45.382Z,64.70
2023-10-23T11:25:13.268Z,64.70
2023-10-23T11:27:41.066Z,64.60
2023-10-23T11:30:09.334Z,64.80
2023-10-23T11:32:38.451Z,64.70
2023-10-23T11:35:07.930Z,64.70
2023-10-23T11:37:38.315Z,64.80
2023-10-23T11:40:08.563Z,64.80
2023-10-23T11:42:47.927Z,65.00
2023-10-23T11:45:16.233Z,65.00
2023-10-23T11:47:43.499Z,65.10
2023-10-23T11:50:14.215Z,65.10
2023-10-23T11:52:44.809Z,65.20
2023-10-23T11:55:13.415Z,65.10
2023-10-23T11:57:41.604Z,65.10
2023-10-23T12:00:13.123Z,65.10
2023-10-23T12:02:41.272Z,65.70
2023-10-23T12:05:12.214Z,65.30
2023-10-23T12:07:42.453Z,65.30
2023-10-23T12:10:10.861Z,65.30
2023-10-23T12:12:40.196Z,65.30
2023-10-23T12:15:08.603Z,65.40
2023-10-23T12:17:35.942Z,65.60
2023-10-23T12:20:08.324Z,65.60
2023-10-23T12:22:36.943Z,66.50
2023-10-23T12:25:06.696Z,67.20
2023-10-23T12:27:34.271Z,67.60
2023-10-23T12:30:06.921Z,68.00
2023-10-23T12:33:11.483Z,68.10
2023-10-23T12:35:24.002Z,68.60
2023-10-23T12:37:51.165Z,68.70
2023-10-23T12:40:22.130Z,69.20
2023-10-23T12:42:49.341Z,69.20
2023-10-23T12:45:16.706Z,70.00
2023-10-23T12:47:43.937Z,70.60
2023-10-23T12:50:11.162Z,70.40
2023-10-23T12:52:39.373Z,70.60
2023-10-23T12:55:07.463Z,71.10
2023-10-23T12:57:35.896Z,71.30
2023-10-23T13:00:03.215Z,71.60
2023-10-23T13:02:30.350Z,71.80
2023-10-23T13:04:58.957Z,72.00
2023-10-23T13:07:26.208Z,72.00
2023-10-23T13:09:53.462Z,72.20
2023-10-23T13:12:20.504Z,72.60
2023-10-23T13:14:48.838Z,72.70
2023-10-23T13:17:15.988Z,72.50
2023-10-23T13:19:43.068Z,72.80
2023-10-23T13:22:15.480Z,73.20
2023-10-23T13:24:42.810Z,73.30
2023-10-23T13:27:14.859Z,73.30
2023-10-23T13:29:41.957Z,73.50
2023-10-23T13:32:15.148Z,73.50
2023-10-23T13:34:42.944Z,74.00
2023-10-23T13:37:11.094Z,74.00
2023-10-23T13:39:38.285Z,74.20
2023-10-23T13:42:06.034Z,74.00
2023-10-23T13:44:33.959Z,74.00
2023-10-23T13:47:01.299Z,73.60
2023-10-23T13:49:29.851Z,73.20
2023-10-23T13:51:57.453Z,72.60
2023-10-23T13:54:24.826Z,71.90
2023-10-23T13:56:52.012Z,71.60
2023-10-23T13:59:19.489Z,71.40
2023-10-23T14:01:46.630Z,71.10
2023-10-23T14:04:14.206Z,71.00
2023-10-23T14:06:42.895Z,71.00
2023-10-23T14:09:40.616Z,70.50
2023-10-23T14:12:02.187Z,70.60
2023-10-23T14:17:02.844Z,70.40
2023-10-23T14:19:43.573Z,70.40
2023-10-23T14:22:16.156Z,70.20
2023-10-23T14:29:37.662Z,70.00
2023-10-23T14:32:06.750Z,69.80
2023-10-23T14:34:33.911Z,69.60
2023-10-23T14:39:34.502Z,69.50
2023-10-23T14:42:01.713Z,69.50
2023-10-23T14:44:30.476Z,69.40
2023-10-23T14:46:57.551Z,69.40
2023-10-23T14:49:24.815Z,69.30
2023-10-23T14:51:52.549Z,69.20
2023-10-23T14:54:19.795Z,69.10
2023-10-23T14:56:50.933Z,69.30
2023-10-23T14:59:18.684Z,68.80
2023-10-23T15:01:46.141Z,69.10
2023-10-23T15:04:13.544Z,69.00
2023-10-23T15:06:41.349Z,68.90
2023-10-23T15:09:08.651Z,69.00
2023-10-23T15:11:35.808Z,68.80
2023-10-23T15:14:08.045Z,68.70
2023-10-23T15:16:36.786Z,68.90
2023-10-23T15:19:04.585Z,68.70
2023-10-23T15:21:31.930Z,68.80
2023-10-23T15:23:59.641Z,68.80
2023-10-23T15:26:26.766Z,68.70
2023-10-23T15:28:54.420Z,68.60
2023-10-23T15:31:23.009Z,68.70
2023-10-23T15:33:50.182Z,68.70
2023-10-23T15:36:17.358Z,68.70
2023-10-23T15:38:44.404Z,68.50
2023-10-23T15:41:12.934Z,68.60
2023-10-23T15:43:42.196Z,68.60
2023-10-23T15:46:13.387Z,68.60
2023-10-23T15:48:42.400Z,68.50
2023-10-23T15:51:09.884Z,68.60
2023-10-23T15:53:37.530Z,68.50
2023-10-23T15:56:05.286Z,68.40
2023-10-23T15:58:33.372Z,68.50
2023-10-23T16:01:04.391Z,68.50
2023-10-23T16:03:35.330Z,68.50
2023-10-23T16:06:09.866Z,68.40
2023-10-23T16:08:38.396Z,68.50
2023-10-23T16:11:06.259Z,68.50
2023-10-23T16:13:38.123Z,68.50
2023-10-23T16:16:06.323Z,68.40
2023-10-23T16:18:33.457Z,68.50
2023-10-23T16:21:01.860Z,68.50
2023-10-23T16:23:30.910Z,68.50
2023-10-23T16:25:58.085Z,68.50
2023-10-23T16:28:25.162Z,68.50
2023-10-23T16:30:52.416Z,68.50
2023-10-23T16:33:19.497Z,68.50
2023-10-23T16:35:46.554Z,68.50
2023-10-23T16:38:13.632Z,68.50
2023-10-23T16:40:41.979Z,68.50
2023-10-23T16:43:09.264Z,68.60
2023-10-23T16:45:36.499Z,68.70
2023-10-23T16:48:04.227Z,68.60
2023-10-23T16:50:31.425Z,68.60
2023-10-23T16:53:01.935Z,68.60
2023-10-23T16:55:29.274Z,68.60
2023-10-23T16:57:58.115Z,68.50
2023-10-23T17:00:25.659Z,68.60
2023-10-23T17:02:52.947Z,68.60
2023-10-23T17:05:20.083Z,68.50
2023-10-23T17:07:47.179Z,68.50
2023-10-23T17:10:14.543Z,68.60
2023-10-23T17:12:41.687Z,68.60
2023-10-23T17:15:11.009Z,68.60
2023-10-23T17:17:38.183Z,68.60
2023-10-23T17:20:07.470Z,68.50
2023-10-23T17:22:36.615Z,68.60
2023-10-23T17:25:04.802Z,68.60
2023-10-23T17:27:31.916Z,68.60
2023-10-23T17:29:59.012Z,68.60
2023-10-23T17:32:27.557Z,68.60
2023-10-23T17:34:54.669Z,68.60
2023-10-23T17:37:21.940Z,68.50
2023-10-23T17:39:49.085Z,69.10
2023-10-23T17:42:16.200Z,68.60
2023-10-23T17:44:43.230Z,68.50
2023-10-23T17:47:10.305Z,68.60
2023-10-23T17:49:39.026Z,68.80
2023-10-23T17:52:06.336Z,68.60
2023-10-23T17:54:34.154Z,68.60
2023-10-23T17:59:34.096Z,68.60
2023-10-23T18:02:01.901Z,68.60
2023-10-23T18:04:29.280Z,68.70
2023-10-23T18:06:57.757Z,68.70
2023-10-23T18:09:24.759Z,68.70
2023-10-23T18:11:51.866Z,68.70
2023-10-23T18:14:19.067Z,68.70
2023-10-23T18:16:46.310Z,68.70
2023-10-23T18:19:16.129Z,68.80
2023-10-23T18:24:17.564Z,68.70
2023-10-23T18:26:45.568Z,68.70
2023-10-23T18:29:12.643Z,68.70
2023-10-23T18:31:39.878Z,68.70
2023-10-23T18:34:07.561Z,68.80
2023-10-23T18:36:35.284Z,68.90
2023-10-23T18:39:04.064Z,68.80
2023-10-23T18:41:32.619Z,68.80
2023-10-23T18:43:59.794Z,68.70
2023-10-23T18:46:26.981Z,68.80
2023-10-23T18:48:54.195Z,68.80
2023-10-23T18:51:21.337Z,68.80
2023-10-23T18:53:48.831Z,68.80
2023-10-23T18:56:16.023Z,68.80
2023-10-23T18:58:44.373Z,69.50
2023-10-23T19:01:13.431Z,68.90
2023-10-23T19:03:42.887Z,68.80
2023-10-23T19:06:10.222Z,68.90
2023-10-23T19:08:39.420Z,68.80
2023-10-23T19:11:07.671Z,68.90
2023-10-23T19:13:34.906Z,68.90
2023-10-23T19:16:03.959Z,69.00
2023-10-23T19:18:31.766Z,69.60
2023-10-23T19:21:03.093Z,68.90
2023-10-23T19:23:30.396Z,68.90
2023-10-23T19:25:57.465Z,68.90
2023-10-23T19:28:25.733Z,69.00
2023-10-23T19:30:54.178Z,68.90
2023-10-23T19:33:23.337Z,68.90
2023-10-23T19:35:50.913Z,68.90
2023-10-23T19:38:18.896Z,68.90
2023-10-23T19:40:47.863Z,68.90
2023-10-23T19:43:17.157Z,69.00
2023-10-23T19:45:45.439Z,68.90
2023-10-23T19:48:13.820Z,69.00
2023-10-23T19:50:46.182Z,69.00
2023-10-23T19:53:16.155Z,69.00
2023-10-23T19:55:47.866Z,69.00
2023-10-23T19:58:17.162Z,69.00
2023-10-23T20:00:44.747Z,69.00
2023-10-23T20:03:11.894Z,68.90
2023-10-23T20:05:38.903Z,68.90
2023-10-23T20:08:08.271Z,69.00
2023-10-23T20:10:35.931Z,69.00
2023-10-23T20:13:05.614Z,69.00
2023-10-23T20:15:32.752Z,69.00
2023-10-23T20:17:59.996Z,69.00
2023-10-23T20:20:27.193Z,69.00
2023-10-23T20:22:54.440Z,69.00
2023-10-23T20:25:23.039Z,69.00
2023-10-23T20:27:51.684Z,69.10
2023-10-23T20:30:18.769Z,69.10
2023-10-23T20:32:46.553Z,69.00
2023-10-23T20:35:13.789Z,69.00
2023-10-23T20:37:40.823Z,69.10
2023-10-23T20:40:09.099Z,69.10
2023-10-23T20:42:37.787Z,69.70
2023-10-23T20:45:06.681Z,69.10
2023-10-23T20:47:34.699Z,69.10
2023-10-23T20:50:02.490Z,69.20
2023-10-23T20:52:30.506Z,69.10
2023-10-23T20:54:57.761Z,69.30
2023-10-23T20:57:24.957Z,69.20
2023-10-23T20:59:53.425Z,69.20
2023-10-23T21:02:20.474Z,69.30
2023-10-23T21:04:47.801Z,69.30
2023-10-23T21:07:14.918Z,69.40
2023-10-23T21:09:42.256Z,69.30
2023-10-23T21:12:09.654Z,69.30
2023-10-23T21:14:46.659Z,69.30
2023-10-23T21:17:15.359Z,69.30
2023-10-23T21:19:42.875Z,69.50
2023-10-23T21:22:11.197Z,69.50
2023-10-23T21:24:38.476Z,69.40
2023-10-23T21:27:05.554Z,69.40
2023-10-23T21:29:32.768Z,69.40
2023-10-23T21:32:01.801Z,69.40
2023-10-23T21:34:30.437Z,69.40
2023-10-23T21:36:57.829Z,69.40
2023-10-23T21:39:24.888Z,69.50
2023-10-23T21:41:51.980Z,69.40
2023-10-23T21:44:19.187Z,69.40
2023-10-23T21:46:46.435Z,69.40
2023-10-23T21:49:13.613Z,70.00
2023-10-23T21:51:43.068Z,69.40
2023-10-23T21:54:11.072Z,69.30
2023-10-23T21:57:20.585Z,69.40
2023-10-23T21:59:26.312Z,69.40
2023-10-23T22:01:54.339Z,69.50
2023-10-23T22:04:23.233Z,69.60
2023-10-23T22:06:52.373Z,69.50
2023-10-23T22:09:19.891Z,69.50
2023-10-23T22:11:47.383Z,70.00
2023-10-23T22:14:14.863Z,69.40
2023-10-23T22:16:42.144Z,69.40
2023-10-23T22:19:09.235Z,69.40
2023-10-23T22:21:36.433Z,69.40
2023-10-23T22:24:06.133Z,69.40
2023-10-23T22:26:33.942Z,69.60
2023-10-23T22:29:01.291Z,69.50
2023-10-23T22:31:28.612Z,69.40
2023-10-23T22:33:55.747Z,69.40
2023-10-23T22:36:22.840Z,69.40
2023-10-23T22:38:51.190Z,69.40
2023-10-23T22:41:20.341Z,69.50
2023-10-23T22:43:47.394Z,69.60
2023-10-23T22:46:14.663Z,69.40
2023-10-23T22:48:42.435Z,69.50
2023-10-23T22:51:10.012Z,69.50
2023-10-23T22:53:38.266Z,69.90
2023-10-23T22:56:09.488Z,69.40
2023-10-23T22:58:39.627Z,69.60
2023-10-23T23:01:07.501Z,69.50
2023-10-23T23:03:36.358Z,69.50
2023-10-23T23:06:06.425Z,69.50
2023-10-23T23:08:39.715Z,70.10
2023-10-23T23:11:07.289Z,69.50
2023-10-23T23:13:35.385Z,69.50
2023-10-23T23:16:06.159Z,69.50
2023-10-23T23:18:37.119Z,69.50
2023-10-23T23:21:08.456Z,69.50
2023-10-23T23:23:35.828Z,69.50
2023-10-23T23:26:02.874Z,69.50
2023-10-23T23:28:29.953Z,69.50
2023-10-23T23:30:57.863Z,69.60
2023-10-23T23:33:26.351Z,69.60
2023-10-23T23:35:56.474Z,69.60
2023-10-23T23:38:24.015Z,69.60
2023-10-23T23:40:52.179Z,69.60
2023-10-23T23:43:19.316Z,69.60
2023-10-23T23:45:48.819Z,69.60
2023-10-23T23:48:15.915Z,69.60
2023-10-23T23:50:45.790Z,69.50
2023-10-23T23:53:12.817Z,69.60
2023-10-23T23:55:39.885Z,69.50
2023-10-23T23:58:07.163Z,69.50
